Time;durP1;ratioP1;P1;durP2;ratioP2;P2;SDS_P1;SDS_P2;PMS_P1;PMS_P2;Temp;Humidity;BMP_temperature;BMP_pressure;BME280_temperature;BME280_humidity;BME280_pressure;Samples;Min_cycle;Max_cycle;Signal;HPM_P1;HPM_P2
2022/01/23 00:01:10;;;;;;;25.67;16.43;;;7.40;99.90;;;;;;4987279;28;20171;-69
2022/01/23 00:03:40;;;;;;;24.93;16.73;;;7.40;99.90;;;;;;4993384;28;20202;-69
2022/01/23 00:06:08;;;;;;;24.17;17.17;;;7.40;99.90;;;;;;4990714;28;20171;-69
2022/01/23 00:08:36;;;;;;;24.87;17.30;;;7.40;99.90;;;;;;4986402;28;20180;-65
2022/01/23 00:11:04;;;;;;;23.13;15.60;;;7.40;99.90;;;;;;4988803;28;20191;-69
2022/01/23 00:17:16;;;;;;;24.57;16.13;;;7.30;99.90;;;;;;4990279;28;20443;-69
2022/01/23 00:19:07;;;;;;;23.73;15.97;;;7.30;99.90;;;;;;4985223;28;20178;-69
2022/01/23 00:21:34;;;;;;;26.80;16.90;;;7.30;99.90;;;;;;4986286;28;20176;-69
2022/01/23 00:31:57;;;;;;;25.80;17.50;;;7.30;99.90;;;;;;4989672;28;20186;-69
2022/01/23 00:34:25;;;;;;;26.93;17.93;;;7.30;99.90;;;;;;4989490;28;20199;-67
2022/01/23 00:36:51;;;;;;;25.80;16.77;;;7.30;99.90;;;;;;4985228;28;20200;-70
2022/01/23 00:39:18;;;;;;;27.33;18.23;;;7.30;99.90;;;;;;4988394;28;20270;-70
2022/01/23 00:41:46;;;;;;;25.57;17.57;;;7.30;99.90;;;;;;4990877;28;20195;-69
2022/01/23 00:44:12;;;;;;;26.33;17.57;;;7.30;99.90;;;;;;4991266;28;20241;-68
2022/01/23 00:46:39;;;;;;;29.57;18.50;;;7.30;99.90;;;;;;4993320;28;20194;-70
2022/01/23 00:51:33;;;;;;;25.53;18.20;;;7.30;99.90;;;;;;4989264;28;20227;-69
2022/01/23 00:54:01;;;;;;;29.20;19.07;;;7.30;99.90;;;;;;4986014;28;20191;-69
2022/01/23 00:56:30;;;;;;;27.10;17.50;;;7.20;99.90;;;;;;4991719;28;20361;-68
2022/01/23 00:58:58;;;;;;;26.00;17.90;;;7.20;99.90;;;;;;4991876;28;20187;-70
2022/01/23 01:01:25;;;;;;;26.80;17.97;;;7.20;99.90;;;;;;4988237;28;20278;-70
2022/01/23 01:03:52;;;;;;;28.20;18.20;;;7.20;99.90;;;;;;4991036;28;20179;-69
2022/01/23 01:06:18;;;;;;;30.80;19.17;;;7.20;99.90;;;;;;4991772;28;20216;-66
2022/01/23 01:08:46;;;;;;;30.70;19.97;;;7.20;99.90;;;;;;4985522;28;20195;-69
2022/01/23 01:11:54;;;;;;;29.60;19.50;;;7.20;99.90;;;;;;4987482;28;20275;-67
2022/01/23 01:30:54;;;;;;;29.77;18.37;;;7.20;99.90;;;;;;4986813;28;20230;-66
2022/01/23 01:36:16;;;;;;;26.23;17.13;;;7.20;99.90;;;;;;4988140;28;20451;-66
2022/01/23 01:38:41;;;;;;;25.67;16.50;;;7.20;99.90;;;;;;4992334;28;20226;-70
2022/01/23 01:41:10;;;;;;;29.20;18.17;;;7.20;99.90;;;;;;4993153;28;20199;-70
2022/01/23 01:43:38;;;;;;;27.50;17.10;;;7.20;99.90;;;;;;4993091;28;20182;-70
2022/01/23 01:46:08;;;;;;;28.23;18.10;;;7.20;99.90;;;;;;4994511;28;20223;-67
2022/01/23 01:48:41;;;;;;;26.13;17.50;;;7.20;99.90;;;;;;4996253;28;20196;-70
2022/01/23 01:51:12;;;;;;;26.10;17.20;;;7.20;99.90;;;;;;4991345;28;20206;-70
2022/01/23 01:53:47;;;;;;;28.20;17.87;;;7.20;99.90;;;;;;4989740;28;20190;-69
2022/01/23 01:56:12;;;;;;;30.47;18.93;;;7.20;99.90;;;;;;4987604;28;20336;-70
2022/01/23 02:02:39;;;;;;;27.47;18.57;;;7.20;99.90;;;;;;4990131;28;20267;-70
2022/01/23 02:09:42;;;;;;;27.47;17.87;;;7.20;99.90;;;;;;4994325;28;20191;-70
2022/01/23 02:17:39;;;;;;;30.67;19.40;;;7.10;99.90;;;;;;4989605;28;20229;-69
2022/01/23 02:55:48;;;;;;;26.13;18.03;;;7.10;99.90;;;;;;4990509;28;20199;-68
2022/01/23 02:58:22;;;;;;;24.87;16.80;;;7.10;99.90;;;;;;4993790;28;20243;-68
2022/01/23 03:03:36;;;;;;;26.80;17.40;;;7.10;99.90;;;;;;4992663;28;20213;-70
2022/01/23 03:12:39;;;;;;;25.93;16.97;;;7.10;99.90;;;;;;4994959;28;20235;-68
2022/01/23 03:14:22;;;;;;;22.60;16.03;;;7.10;99.90;;;;;;4984042;28;20266;-70
2022/01/23 03:28:05;;;;;;;23.73;16.20;;;7.20;99.90;;;;;;4993569;28;20183;-69
2022/01/23 03:30:39;;;;;;;21.03;14.47;;;7.20;99.90;;;;;;4993217;28;20183;-69
2022/01/23 03:33:10;;;;;;;28.10;16.27;;;7.20;99.90;;;;;;4994480;28;20179;-67
2022/01/23 03:35:35;;;;;;;23.77;15.30;;;7.20;99.90;;;;;;4991855;28;20182;-68
2022/01/23 03:38:03;;;;;;;24.67;15.67;;;7.20;99.90;;;;;;4991679;28;20206;-70
2022/01/23 03:40:29;;;;;;;22.67;14.97;;;7.20;99.90;;;;;;4992549;28;20183;-67
2022/01/23 03:43:07;;;;;;;24.47;15.87;;;7.20;99.90;;;;;;4986381;28;20195;-69
2022/01/23 03:50:45;;;;;;;22.30;15.60;;;7.20;99.90;;;;;;4981656;28;20189;-69
2022/01/23 03:53:11;;;;;;;24.07;15.67;;;7.20;99.90;;;;;;4992873;28;20300;-69
2022/01/23 03:55:37;;;;;;;23.07;15.93;;;7.20;99.90;;;;;;4993655;28;20191;-67
2022/01/23 03:58:03;;;;;;;22.57;16.13;;;7.20;99.90;;;;;;4992615;28;20182;-69
2022/01/23 04:00:29;;;;;;;25.53;16.47;;;7.20;99.90;;;;;;4991920;28;20199;-68
2022/01/23 04:02:57;;;;;;;25.23;16.03;;;7.20;99.90;;;;;;4993122;28;20179;-68
2022/01/23 04:05:23;;;;;;;23.13;16.13;;;7.20;99.90;;;;;;4991490;28;20207;-69
2022/01/23 04:07:48;;;;;;;24.17;16.70;;;7.20;99.90;;;;;;4985879;28;20210;-70
2022/01/23 04:10:19;;;;;;;26.83;16.33;;;7.20;99.90;;;;;;4992141;28;20191;-70
2022/01/23 04:12:57;;;;;;;23.93;16.07;;;7.30;99.90;;;;;;4992317;28;20192;-70
2022/01/23 04:15:41;;;;;;;24.43;15.63;;;7.20;99.90;;;;;;4993966;28;20229;-68
2022/01/23 04:32:33;;;;;;;25.13;16.00;;;7.20;99.90;;;;;;4985492;28;20191;-69
2022/01/23 04:45:32;;;;;;;24.33;16.17;;;7.20;99.90;;;;;;4989447;28;20186;-70
2022/01/23 05:02:11;;;;;;;21.37;14.60;;;7.10;99.90;;;;;;4987435;28;20202;-68
2022/01/23 05:04:37;;;;;;;23.97;15.93;;;7.10;99.90;;;;;;4992971;28;20202;-70
2022/01/23 05:07:09;;;;;;;24.47;15.73;;;7.10;99.90;;;;;;4987384;28;20234;-67
2022/01/23 05:09:35;;;;;;;30.17;18.70;;;7.10;99.90;;;;;;4994058;28;20290;-69
2022/01/23 05:12:06;;;;;;;28.27;17.60;;;7.10;99.90;;;;;;4995434;28;20277;-68
2022/01/23 05:14:41;;;;;;;24.90;16.53;;;7.10;99.90;;;;;;4993218;28;20186;-68
2022/01/23 05:17:13;;;;;;;24.93;16.53;;;7.10;99.90;;;;;;4996124;28;20202;-70
2022/01/23 05:19:39;;;;;;;23.80;16.70;;;7.10;99.90;;;;;;4994551;28;20241;-69
2022/01/23 05:22:26;;;;;;;24.03;16.90;;;7.10;99.90;;;;;;4995678;28;20221;-70
2022/01/23 05:25:01;;;;;;;30.10;17.13;;;7.10;99.90;;;;;;4993932;28;20241;-69
2022/01/23 05:27:27;;;;;;;26.27;17.10;;;7.20;99.90;;;;;;4991455;28;20225;-67
2022/01/23 05:29:58;;;;;;;26.20;17.23;;;7.10;99.90;;;;;;4989002;28;20203;-70
2022/01/23 05:32:27;;;;;;;25.27;15.93;;;7.10;99.90;;;;;;4994326;28;20183;-70
2022/01/23 05:34:53;;;;;;;25.90;17.07;;;7.10;99.90;;;;;;4993815;28;20217;-69
2022/01/23 05:37:20;;;;;;;24.40;16.30;;;7.10;99.90;;;;;;4995935;28;20231;-69
2022/01/23 05:39:49;;;;;;;25.43;16.50;;;7.10;99.90;;;;;;4992617;28;20176;-69
2022/01/23 05:42:14;;;;;;;26.53;16.50;;;7.10;99.90;;;;;;4991936;28;20178;-70
2022/01/23 05:44:42;;;;;;;23.93;16.23;;;7.20;99.90;;;;;;4995225;28;20291;-70
2022/01/23 05:47:09;;;;;;;25.07;16.63;;;7.10;99.90;;;;;;4994062;28;20218;-69
2022/01/23 05:49:38;;;;;;;26.10;16.80;;;7.10;99.90;;;;;;4987418;28;20189;-69
2022/01/23 05:52:09;;;;;;;26.20;15.73;;;7.10;99.90;;;;;;4989750;28;20195;-69
2022/01/23 05:54:35;;;;;;;25.43;16.20;;;7.10;99.90;;;;;;4993342;28;20179;-69
2022/01/23 05:57:04;;;;;;;25.73;17.57;;;7.10;99.90;;;;;;4996365;28;20276;-71
2022/01/23 05:59:29;;;;;;;24.97;16.53;;;7.10;99.90;;;;;;4995191;28;20195;-70
2022/01/23 06:01:55;;;;;;;24.50;16.73;;;7.10;99.90;;;;;;4996075;28;20265;-68
2022/01/23 06:04:24;;;;;;;26.60;17.63;;;7.10;99.90;;;;;;4994483;28;20175;-69
2022/01/23 06:06:50;;;;;;;27.67;16.57;;;7.10;99.90;;;;;;4991258;28;20267;-69
2022/01/23 06:09:20;;;;;;;23.67;15.83;;;7.20;99.90;;;;;;4994612;28;20581;-69
2022/01/23 06:11:48;;;;;;;23.70;15.77;;;7.10;99.90;;;;;;4995206;28;20274;-68
2022/01/23 06:14:18;;;;;;;25.73;17.50;;;7.10;99.90;;;;;;4986813;28;20195;-70
2022/01/23 06:16:44;;;;;;;26.70;16.80;;;7.10;99.90;;;;;;4992297;28;20269;-70
2022/01/23 06:19:12;;;;;;;25.77;16.20;;;7.10;99.90;;;;;;4992193;28;20180;-69
2022/01/23 06:21:38;;;;;;;24.27;15.80;;;7.10;99.90;;;;;;4992818;28;20195;-69
2022/01/23 06:24:09;;;;;;;26.57;16.57;;;7.10;99.90;;;;;;4995163;28;20187;-66
2022/01/23 06:26:50;;;;;;;23.67;15.77;;;7.10;99.90;;;;;;4995985;28;20180;-72
2022/01/23 06:29:17;;;;;;;23.67;15.90;;;7.10;99.90;;;;;;4986839;28;20222;-70
2022/01/23 06:31:46;;;;;;;23.47;16.23;;;7.10;99.90;;;;;;4993598;28;20182;-66
2022/01/23 06:34:13;;;;;;;23.60;15.30;;;7.10;99.90;;;;;;4994237;28;20179;-69
2022/01/23 06:36:41;;;;;;;26.40;16.90;;;7.10;99.90;;;;;;4993107;28;20192;-69
2022/01/23 06:39:09;;;;;;;23.73;15.93;;;7.10;99.90;;;;;;4992431;28;20198;-69
2022/01/23 06:41:39;;;;;;;25.33;16.90;;;7.10;99.90;;;;;;4992117;28;20186;-70
2022/01/23 06:44:07;;;;;;;23.57;16.30;;;7.10;99.90;;;;;;4995822;28;20171;-70
2022/01/23 06:46:36;;;;;;;26.00;16.13;;;7.10;99.90;;;;;;4995851;28;20171;-70
2022/01/23 06:49:02;;;;;;;25.30;16.03;;;7.10;99.90;;;;;;4991831;28;20207;-68
2022/01/23 06:51:29;;;;;;;23.27;15.77;;;7.10;99.90;;;;;;4991539;28;20183;-70
2022/01/23 06:53:55;;;;;;;25.87;17.37;;;7.10;99.90;;;;;;4992745;28;20262;-69
2022/01/23 06:56:23;;;;;;;26.73;17.30;;;7.10;99.90;;;;;;4993934;28;20299;-71
2022/01/23 06:58:49;;;;;;;24.90;16.77;;;7.20;99.90;;;;;;4993044;28;20210;-69
2022/01/23 07:01:19;;;;;;;25.13;16.50;;;7.20;99.90;;;;;;4991235;28;20180;-69
2022/01/23 07:03:47;;;;;;;25.87;16.13;;;7.20;99.90;;;;;;4992477;28;20231;-69
2022/01/23 07:06:13;;;;;;;26.17;16.47;;;7.20;99.90;;;;;;4986627;28;20202;-69
2022/01/23 07:08:40;;;;;;;24.10;16.07;;;7.20;99.90;;;;;;4985015;28;20188;-68
2022/01/23 07:11:06;;;;;;;23.70;15.97;;;7.20;99.90;;;;;;4993853;28;21380;-69
2022/01/23 07:13:34;;;;;;;26.37;16.73;;;7.20;99.90;;;;;;4991676;28;20449;-69
2022/01/23 07:16:02;;;;;;;24.73;16.43;;;7.20;99.90;;;;;;4992081;28;20254;-69
2022/01/23 07:18:30;;;;;;;24.10;16.27;;;7.20;99.90;;;;;;4993219;28;20266;-70
2022/01/23 07:20:56;;;;;;;28.17;17.77;;;7.20;99.90;;;;;;4987797;28;20268;-70
2022/01/23 07:23:23;;;;;;;24.17;15.93;;;7.20;99.90;;;;;;4994284;28;20202;-70
2022/01/23 07:25:52;;;;;;;25.60;16.80;;;7.10;99.90;;;;;;4995864;28;20191;-68
2022/01/23 07:28:23;;;;;;;39.03;26.07;;;7.10;99.90;;;;;;4990898;28;20187;-71
2022/01/23 07:30:55;;;;;;;32.93;22.63;;;7.10;99.90;;;;;;4991787;28;20204;-70
2022/01/23 07:33:20;;;;;;;28.47;19.73;;;7.10;99.90;;;;;;4990306;28;20175;-70
2022/01/23 07:35:48;;;;;;;27.20;18.57;;;7.10;99.90;;;;;;4988994;28;20198;-68
2022/01/23 07:38:17;;;;;;;26.63;17.87;;;7.20;99.90;;;;;;4988586;28;20210;-71
2022/01/23 07:40:48;;;;;;;27.27;16.93;;;7.20;99.90;;;;;;4985849;28;20431;-69
2022/01/23 07:43:14;;;;;;;30.57;18.90;;;7.20;99.90;;;;;;4989230;28;20179;-70
2022/01/23 07:45:43;;;;;;;28.37;18.87;;;7.20;99.90;;;;;;4992584;28;20218;-68
2022/01/23 07:48:11;;;;;;;27.93;18.10;;;7.20;99.90;;;;;;4992802;28;20226;-68
2022/01/23 07:50:37;;;;;;;24.73;17.17;;;7.30;99.90;;;;;;4991810;28;20222;-70
2022/01/23 07:53:04;;;;;;;28.83;18.07;;;7.20;99.90;;;;;;4992270;28;20210;-71
2022/01/23 07:55:30;;;;;;;23.87;16.63;;;7.30;99.90;;;;;;4992646;28;20223;-70
2022/01/23 07:58:02;;;;;;;26.23;17.70;;;7.30;99.90;;;;;;4991002;28;20486;-67
2022/01/23 08:00:33;;;;;;;24.80;16.93;;;7.30;99.90;;;;;;4990633;28;20192;-71
2022/01/23 08:02:59;;;;;;;23.97;16.50;;;7.30;99.90;;;;;;4983520;28;20172;-71
2022/01/23 08:05:25;;;;;;;24.53;16.40;;;7.30;99.90;;;;;;4993280;28;20269;-71
2022/01/23 08:07:52;;;;;;;25.67;16.27;;;7.30;99.90;;;;;;4986402;28;20188;-67
2022/01/23 08:10:18;;;;;;;24.90;15.33;;;7.30;99.90;;;;;;4986968;28;20259;-70
2022/01/23 08:12:44;;;;;;;24.40;16.10;;;7.30;99.90;;;;;;4992007;28;20261;-70
2022/01/23 08:15:13;;;;;;;22.73;15.77;;;7.30;99.90;;;;;;4982605;28;20179;-70
2022/01/23 08:17:38;;;;;;;24.13;16.43;;;7.30;99.90;;;;;;4992800;28;20214;-70
2022/01/23 08:20:06;;;;;;;25.63;16.07;;;7.30;99.90;;;;;;4992856;28;20191;-71
2022/01/23 08:22:34;;;;;;;22.73;15.50;;;7.40;99.90;;;;;;4985894;28;20183;-69
2022/01/23 08:25:02;;;;;;;26.77;15.70;;;7.30;99.90;;;;;;4985328;28;20215;-70
2022/01/23 08:27:31;;;;;;;24.30;16.73;;;7.30;99.90;;;;;;4988386;28;20183;-69
2022/01/23 08:29:58;;;;;;;23.47;15.47;;;7.40;99.90;;;;;;4986160;28;20274;-69
2022/01/23 08:32:24;;;;;;;25.20;15.73;;;7.40;99.90;;;;;;4985552;28;20202;-68
2022/01/23 08:34:52;;;;;;;22.70;15.47;;;7.40;99.90;;;;;;4990870;28;20187;-70
2022/01/23 08:37:19;;;;;;;25.50;15.33;;;7.40;99.90;;;;;;4990805;28;20211;-70
2022/01/23 08:39:45;;;;;;;20.67;14.63;;;7.40;99.90;;;;;;4989017;28;20191;-70
2022/01/23 08:42:18;;;;;;;22.83;16.10;;;7.40;99.90;;;;;;4986939;28;20180;-72
2022/01/23 08:44:48;;;;;;;20.93;14.67;;;7.40;99.90;;;;;;4991871;28;20187;-71
2022/01/23 08:47:17;;;;;;;23.17;14.87;;;7.40;99.90;;;;;;4990844;28;20179;-70
2022/01/23 08:49:48;;;;;;;23.53;16.23;;;7.40;99.90;;;;;;4991635;28;20188;-71
2022/01/23 08:52:17;;;;;;;23.23;15.13;;;7.40;99.90;;;;;;4996707;28;20215;-68
2022/01/23 08:54:49;;;;;;;21.83;15.00;;;7.40;99.90;;;;;;4986296;28;20195;-66
2022/01/23 08:57:16;;;;;;;21.00;14.20;;;7.40;99.90;;;;;;4992568;28;20195;-67
2022/01/23 08:59:41;;;;;;;25.23;15.57;;;7.40;99.90;;;;;;4992555;28;20213;-69
2022/01/23 09:02:12;;;;;;;21.50;14.70;;;7.40;99.90;;;;;;4995634;28;20274;-70
2022/01/23 09:04:38;;;;;;;23.90;15.47;;;7.40;99.90;;;;;;4982399;28;20219;-70
2022/01/23 09:07:08;;;;;;;22.70;15.00;;;7.40;99.90;;;;;;4990752;28;20208;-68
2022/01/23 09:09:37;;;;;;;24.20;15.53;;;7.40;99.90;;;;;;4990477;28;20190;-69
2022/01/23 09:12:20;;;;;;;22.23;15.50;;;7.50;99.90;;;;;;4990343;28;20214;-66
2022/01/23 09:14:48;;;;;;;21.27;14.47;;;7.50;99.90;;;;;;4993357;28;20179;-69
2022/01/23 09:17:16;;;;;;;22.90;15.20;;;7.50;99.90;;;;;;4982440;28;20258;-67
2022/01/23 09:19:45;;;;;;;21.27;14.70;;;7.50;99.90;;;;;;4987670;28;20207;-68
2022/01/23 09:22:13;;;;;;;23.07;15.83;;;7.50;99.90;;;;;;4985803;28;20239;-66
2022/01/23 09:24:39;;;;;;;22.70;15.37;;;7.60;99.90;;;;;;4991481;28;20195;-68
2022/01/23 09:27:07;;;;;;;22.37;14.67;;;7.60;99.90;;;;;;4985067;28;20198;-66
2022/01/23 09:29:40;;;;;;;22.23;15.20;;;7.60;99.90;;;;;;4990826;28;20175;-70
2022/01/23 09:32:13;;;;;;;23.37;15.73;;;7.70;99.90;;;;;;4992709;28;20207;-67
2022/01/23 09:34:41;;;;;;;24.90;15.53;;;7.70;99.90;;;;;;5010324;28;20185;-68
2022/01/23 09:37:09;;;;;;;22.83;15.17;;;7.70;99.90;;;;;;4988570;28;20197;-67
2022/01/23 09:39:35;;;;;;;23.50;15.40;;;7.70;99.90;;;;;;4990061;28;20378;-67
2022/01/23 09:42:14;;;;;;;21.87;14.87;;;7.80;99.90;;;;;;4990837;28;20275;-68
2022/01/23 09:44:44;;;;;;;23.83;15.57;;;7.80;99.90;;;;;;4984578;28;20218;-70
2022/01/23 09:47:15;;;;;;;22.20;15.40;;;7.70;99.90;;;;;;4987402;28;20175;-70
2022/01/23 09:49:43;;;;;;;24.57;15.83;;;7.80;99.90;;;;;;4986176;28;20270;-66
2022/01/23 09:52:12;;;;;;;22.53;14.70;;;7.70;99.90;;;;;;4987715;28;20212;-67
2022/01/23 09:54:40;;;;;;;23.57;14.10;;;7.70;99.90;;;;;;4988402;28;20187;-67
2022/01/23 09:57:09;;;;;;;22.80;15.40;;;7.70;99.90;;;;;;4987871;28;20214;-69
2022/01/23 09:59:35;;;;;;;22.63;15.03;;;7.80;99.90;;;;;;4992340;28;20416;-68
2022/01/23 10:02:03;;;;;;;21.50;14.80;;;7.80;99.90;;;;;;4994920;28;20183;-65
2022/01/23 10:04:33;;;;;;;22.60;14.87;;;7.80;99.90;;;;;;4990536;28;20597;-67
2022/01/23 10:06:58;;;;;;;23.97;15.20;;;7.80;99.90;;;;;;4990743;28;20199;-67
2022/01/23 10:09:26;;;;;;;23.13;15.70;;;7.80;99.90;;;;;;4988478;28;20183;-69
2022/01/23 10:11:52;;;;;;;23.70;15.93;;;7.80;99.90;;;;;;4988216;28;20203;-66
2022/01/23 10:14:19;;;;;;;23.50;16.07;;;7.80;99.90;;;;;;4987840;28;20184;-68
2022/01/23 10:16:48;;;;;;;23.33;15.60;;;7.80;99.90;;;;;;4987772;28;20214;-69
2022/01/23 10:19:17;;;;;;;23.77;15.53;;;7.80;99.90;;;;;;4994214;28;20184;-69
2022/01/23 10:21:44;;;;;;;23.87;15.73;;;7.90;99.90;;;;;;4995621;28;20202;-69
2022/01/23 10:24:14;;;;;;;28.90;19.20;;;7.90;99.90;;;;;;4993843;28;20207;-66
2022/01/23 10:27:06;;;;;;;29.07;18.90;;;7.90;99.90;;;;;;4986004;28;21637;-67
2022/01/23 10:29:37;;;;;;;28.47;19.83;;;7.90;99.90;;;;;;4986008;28;20211;-67
2022/01/23 10:32:14;;;;;;;32.23;21.70;;;8.00;99.90;;;;;;4989517;28;20194;-68
2022/01/23 10:34:44;;;;;;;25.23;17.57;;;8.00;99.90;;;;;;4988459;28;20198;-70
2022/01/23 10:37:43;;;;;;;24.03;16.40;;;8.00;99.90;;;;;;4990398;28;20210;-68
2022/01/23 10:40:27;;;;;;;26.87;16.63;;;8.10;99.90;;;;;;4980853;28;20270;-66
2022/01/23 10:48:35;;;;;;;25.47;16.13;;;8.10;99.90;;;;;;4986099;28;20246;-66
2022/01/23 10:51:18;;;;;;;26.23;17.77;;;8.20;99.90;;;;;;4991729;28;20211;-69
2022/01/23 10:53:59;;;;;;;26.90;17.67;;;8.20;99.90;;;;;;4987640;28;20202;-66
2022/01/23 10:56:38;;;;;;;27.93;17.77;;;8.20;99.90;;;;;;4987664;28;20203;-66
2022/01/23 10:59:05;;;;;;;28.27;18.93;;;8.20;99.90;;;;;;4988545;28;20214;-68
2022/01/23 11:01:33;;;;;;;26.47;18.07;;;8.20;99.90;;;;;;4987200;28;20227;-67
2022/01/23 11:04:08;;;;;;;26.37;18.73;;;8.20;99.90;;;;;;4980351;28;20342;-67
2022/01/23 11:06:59;;;;;;;24.37;16.73;;;8.20;99.90;;;;;;4997652;28;20247;-68
2022/01/23 11:09:36;;;;;;;26.40;16.57;;;8.20;99.90;;;;;;4980987;28;20179;-68
2022/01/23 11:12:05;;;;;;;26.63;17.73;;;8.30;99.90;;;;;;4996280;28;20188;-66
2022/01/23 11:19:57;;;;;;;27.27;17.40;;;8.40;99.90;;;;;;4987849;28;20223;-67
2022/01/23 11:22:29;;;;;;;27.67;17.97;;;8.40;99.90;;;;;;4989456;28;20175;-69
2022/01/23 11:25:01;;;;;;;26.13;16.43;;;8.40;99.90;;;;;;4988776;28;20187;-68
2022/01/23 11:27:37;;;;;;;25.03;17.40;;;8.40;99.90;;;;;;4988861;28;20207;-67
2022/01/23 11:30:08;;;;;;;30.23;19.47;;;8.50;99.90;;;;;;4986892;28;22158;-66
2022/01/23 11:32:38;;;;;;;26.60;18.10;;;8.50;99.90;;;;;;4990904;28;20207;-67
2022/01/23 11:35:16;;;;;;;28.70;18.20;;;8.50;99.90;;;;;;4988202;28;20218;-67
2022/01/23 11:37:47;;;;;;;26.90;18.53;;;8.50;99.90;;;;;;4986425;28;20239;-67
2022/01/23 11:54:04;;;;;;;27.43;18.73;;;8.60;99.90;;;;;;4991017;28;20175;-69
2022/01/23 11:59:19;;;;;;;29.53;18.57;;;8.60;99.90;;;;;;4987379;28;20219;-70
2022/01/23 12:01:48;;;;;;;25.30;17.07;;;8.60;99.90;;;;;;4984540;28;20250;-68
2022/01/23 12:04:19;;;;;;;28.73;18.50;;;8.50;99.90;;;;;;5008631;28;20570;-68
2022/01/23 12:07:16;;;;;;;27.10;18.20;;;8.60;99.90;;;;;;4987543;28;20172;-66
2022/01/23 12:10:47;;;;;;;27.17;18.17;;;8.60;99.90;;;;;;4990092;28;20211;-70
2022/01/23 12:16:28;;;;;;;;;;;;;;;;;;;;;
2022/01/23 12:19:12;;;;;;;30.00;19.93;;;8.60;99.90;;;;;;4993574;28;20183;-72
2022/01/23 12:21:38;;;;;;;28.60;19.53;;;8.50;99.90;;;;;;4987179;28;20191;-68
2022/01/23 12:24:13;;;;;;;29.57;19.53;;;8.50;99.90;;;;;;4985301;28;20223;-71
2022/01/23 12:26:39;;;;;;;27.33;18.07;;;8.50;99.90;;;;;;4982102;28;20191;-70
2022/01/23 12:29:26;;;;;;;27.27;18.57;;;8.50;99.90;;;;;;4985157;28;20258;-71
2022/01/23 12:32:17;;;;;;;24.43;16.83;;;8.50;99.90;;;;;;4984679;28;20205;-70
2022/01/23 12:34:51;;;;;;;24.33;16.33;;;8.50;99.90;;;;;;4984807;28;20183;-71
2022/01/23 12:37:17;;;;;;;23.43;15.73;;;8.50;99.90;;;;;;4986687;28;20213;-71
2022/01/23 12:39:43;;;;;;;24.10;16.37;;;8.50;99.90;;;;;;4987972;28;20286;-72
2022/01/23 12:42:09;;;;;;;24.30;16.07;;;8.60;99.90;;;;;;4986916;28;20313;-71
2022/01/23 12:44:42;;;;;;;23.10;15.40;;;8.60;99.90;;;;;;4986187;28;20327;-70
2022/01/23 12:47:21;;;;;;;23.17;15.33;;;8.60;99.90;;;;;;4987271;28;20274;-68
2022/01/23 12:49:52;;;;;;;25.73;16.40;;;8.60;99.90;;;;;;4987435;28;20179;-71
2022/01/23 12:52:20;;;;;;;25.10;16.53;;;8.60;99.90;;;;;;4982677;28;20631;-70
2022/01/23 12:54:53;;;;;;;24.70;16.33;;;8.60;99.90;;;;;;4993849;28;20183;-71
2022/01/23 12:57:39;;;;;;;24.40;16.07;;;8.60;99.90;;;;;;4989256;28;20253;-69
2022/01/23 13:00:11;;;;;;;24.07;16.07;;;8.60;99.90;;;;;;4991534;28;20190;-69
2022/01/23 13:02:51;;;;;;;23.77;16.03;;;8.60;99.90;;;;;;4990401;28;20326;-70
2022/01/23 13:05:19;;;;;;;26.93;17.23;;;8.60;99.90;;;;;;4993025;28;20176;-69
2022/01/23 13:18:18;;;;;;;26.13;18.17;;;8.60;99.90;;;;;;4989712;28;20214;-68
2022/01/23 13:32:08;;;;;;;23.93;15.83;;;8.60;99.90;;;;;;4994932;28;20183;-68
2022/01/23 13:34:34;;;;;;;23.70;15.60;;;8.70;99.90;;;;;;4985820;28;20620;-63
2022/01/23 13:37:13;;;;;;;23.73;15.77;;;8.70;99.90;;;;;;4988216;28;20200;-67
2022/01/23 13:40:01;;;;;;;23.57;15.40;;;8.70;99.90;;;;;;4994735;28;20222;-70
2022/01/23 13:47:52;;;;;;;24.37;16.03;;;8.70;99.90;;;;;;4991899;28;20187;-69
2022/01/23 13:59:54;;;;;;;26.63;16.73;;;8.90;99.90;;;;;;4989239;28;20233;-66
2022/01/23 14:02:29;;;;;;;24.73;16.50;;;8.90;99.90;;;;;;4987180;28;20167;-69
2022/01/23 14:05:11;;;;;;;28.87;17.57;;;8.90;99.90;;;;;;4985621;28;20191;-65
2022/01/23 14:07:40;;;;;;;34.60;22.40;;;8.90;99.90;;;;;;4986685;28;20199;-64
2022/01/23 14:10:15;;;;;;;49.67;32.43;;;8.90;99.90;;;;;;4983149;28;20187;-66
2022/01/23 14:12:42;;;;;;;33.53;22.67;;;8.90;99.90;;;;;;4988131;28;20197;-70
2022/01/23 14:15:16;;;;;;;29.40;19.40;;;8.90;99.90;;;;;;4991548;28;20164;-68
2022/01/23 14:17:54;;;;;;;29.10;17.43;;;9.00;99.90;;;;;;4988638;28;20207;-69
2022/01/23 14:20:20;;;;;;;25.27;16.47;;;9.00;99.90;;;;;;4991455;28;20206;-68
2022/01/23 14:22:51;;;;;;;24.87;16.23;;;8.90;99.90;;;;;;4992455;28;20192;-69
2022/01/23 14:25:26;;;;;;;24.87;16.10;;;9.00;99.90;;;;;;4992973;28;20250;-68
2022/01/23 14:28:04;;;;;;;25.30;16.30;;;8.90;99.90;;;;;;4986184;28;20286;-69
2022/01/23 14:30:41;;;;;;;24.03;15.73;;;9.00;99.90;;;;;;4987987;28;20171;-67
2022/01/23 14:33:16;;;;;;;25.70;16.37;;;9.00;99.90;;;;;;4985675;28;20249;-66
2022/01/23 14:35:42;;;;;;;25.07;16.17;;;9.00;99.90;;;;;;4983183;28;20277;-66
2022/01/23 14:38:21;;;;;;;26.67;16.73;;;9.00;99.90;;;;;;4984576;28;20543;-65
2022/01/23 14:41:02;;;;;;;26.83;16.27;;;8.90;99.90;;;;;;4985328;28;20191;-67
2022/01/23 14:43:40;;;;;;;23.73;15.87;;;9.00;99.90;;;;;;4984852;28;20186;-66
2022/01/23 14:46:11;;;;;;;23.80;16.43;;;9.00;99.90;;;;;;4979707;28;20184;-63
2022/01/23 14:48:47;;;;;;;25.70;16.93;;;8.90;99.90;;;;;;4974009;28;20789;-66
2022/01/23 14:51:23;;;;;;;24.70;15.80;;;9.00;99.90;;;;;;4989207;28;20290;-67
2022/01/23 14:53:54;;;;;;;26.17;16.13;;;9.00;99.90;;;;;;4986790;28;20187;-65
2022/01/23 14:56:20;;;;;;;25.43;17.13;;;9.00;99.90;;;;;;4983985;28;20245;-67
2022/01/23 14:58:47;;;;;;;24.20;15.53;;;8.90;99.90;;;;;;4978948;28;20297;-66
2022/01/23 15:01:15;;;;;;;23.07;15.50;;;8.90;99.90;;;;;;4978810;28;20225;-65
2022/01/23 15:03:56;;;;;;;23.77;15.57;;;8.90;99.90;;;;;;4976466;28;20183;-68
2022/01/23 15:06:25;;;;;;;22.77;14.57;;;8.90;99.90;;;;;;4974416;28;20211;-69
2022/01/23 15:08:50;;;;;;;25.33;15.37;;;8.90;99.90;;;;;;4988241;28;20214;-69
2022/01/23 15:11:17;;;;;;;24.03;15.37;;;8.90;99.90;;;;;;4989866;28;20229;-66
2022/01/23 15:13:43;;;;;;;22.67;14.43;;;8.90;99.90;;;;;;4992543;28;20194;-69
2022/01/23 15:16:12;;;;;;;23.30;15.27;;;8.90;99.90;;;;;;4989181;28;20187;-69
2022/01/23 15:18:37;;;;;;;21.57;13.03;;;8.90;99.90;;;;;;4987313;28;20175;-69
2022/01/23 15:21:03;;;;;;;19.73;13.03;;;8.90;99.90;;;;;;4991541;28;20183;-70
2022/01/23 15:23:29;;;;;;;19.33;13.53;;;8.90;99.90;;;;;;4989746;28;20199;-70
2022/01/23 15:25:57;;;;;;;20.70;13.37;;;8.80;99.90;;;;;;4989645;28;20176;-70
2022/01/23 15:28:22;;;;;;;19.37;12.97;;;8.90;99.90;;;;;;4988613;28;20251;-67
2022/01/23 15:30:50;;;;;;;19.33;12.93;;;8.90;99.90;;;;;;4985413;28;20270;-70
2022/01/23 15:33:18;;;;;;;18.43;12.67;;;8.90;99.90;;;;;;4991607;28;20314;-70
2022/01/23 15:35:47;;;;;;;17.80;12.40;;;8.80;99.90;;;;;;4989720;28;20261;-66
2022/01/23 15:38:16;;;;;;;18.63;12.53;;;8.80;99.90;;;;;;4984711;28;20199;-70
2022/01/23 15:40:46;;;;;;;18.97;12.13;;;8.80;99.90;;;;;;4983303;28;20290;-69
2022/01/23 15:43:14;;;;;;;16.17;11.33;;;8.80;99.90;;;;;;4987135;28;20229;-69
2022/01/23 15:45:43;;;;;;;18.00;11.67;;;8.80;99.90;;;;;;4985024;28;20179;-68
2022/01/23 15:48:12;;;;;;;15.77;10.50;;;8.80;99.90;;;;;;4986578;28;20202;-69
2022/01/23 15:50:37;;;;;;;16.73;11.30;;;8.70;99.90;;;;;;4985103;28;20188;-70
2022/01/23 15:53:05;;;;;;;15.63;11.07;;;8.70;99.90;;;;;;4984321;28;20218;-69
2022/01/23 15:55:31;;;;;;;17.67;11.60;;;8.70;99.90;;;;;;4988954;28;20211;-70
2022/01/23 15:57:57;;;;;;;16.17;10.90;;;8.70;99.90;;;;;;4987106;28;20235;-67
2022/01/23 16:00:26;;;;;;;23.47;15.17;;;8.70;99.90;;;;;;4987233;28;20211;-70
2022/01/23 16:02:57;;;;;;;19.57;13.47;;;8.70;99.90;;;;;;4988481;28;20228;-68
2022/01/23 16:05:23;;;;;;;17.20;12.27;;;8.70;99.90;;;;;;4976428;28;20207;-67
2022/01/23 16:07:50;;;;;;;17.37;11.73;;;8.70;99.90;;;;;;4977433;28;20238;-69
2022/01/23 16:10:16;;;;;;;18.30;12.23;;;8.60;99.90;;;;;;4986117;28;20253;-69
2022/01/23 16:12:44;;;;;;;17.63;11.70;;;8.60;99.90;;;;;;4986991;28;20211;-66
2022/01/23 16:15:14;;;;;;;15.50;10.80;;;8.60;99.90;;;;;;4984003;28;20206;-69
2022/01/23 16:17:40;;;;;;;14.00;9.70;;;8.60;99.90;;;;;;4983913;28;20290;-69
2022/01/23 16:20:08;;;;;;;14.67;10.33;;;8.60;99.90;;;;;;4984184;28;20234;-69
2022/01/23 16:22:34;;;;;;;13.33;9.07;;;8.60;99.90;;;;;;4984157;28;20194;-68
2022/01/23 16:25:05;;;;;;;13.03;8.67;;;8.60;99.90;;;;;;4983779;28;20207;-69
2022/01/23 16:27:30;;;;;;;12.23;8.57;;;8.50;99.90;;;;;;4984677;28;20231;-70